Terminal Aerodrome Forecast
Issued by NWS

Home | Current Version | Previous Version | Text Only | Print | Product List | Glossary On
Versions: 1 2 3 4 5 6 7 8 9 10 11 12 13 14 15
000
FTUS45 KTFX 211100
TAFHVR
TAF
KHVR 211125Z 2112/2212 31007KT P6SM VCSH BKN015 OVC040
     FM211600 35010KT P6SM -SHRA BKN020 OVC050
     FM220000 02009KT P6SM VCSH SCT008 BKN020=

USA.gov is the U.S. government's official web portal to all federal, state and local government web resources and services.